sensor_id;sensor_type;location;lat;lon;timestamp;P1;durP1;ratioP1;P2;durP2;ratioP2
20421;SDS011;10370;53.102;18.034;2024-03-23T00:57:29;20.42;;;9.02;;
20421;SDS011;10370;53.102;18.034;2024-03-23T01:02:51;23.17;;;7.30;;
20421;SDS011;10370;53.102;18.034;2024-03-23T01:08:21;25.02;;;11.82;;
20421;SDS011;10370;53.102;18.034;2024-03-23T01:13:43;16.92;;;6.25;;
20421;SDS011;10370;53.102;18.034;2024-03-23T01:19:04;28.55;;;8.52;;
20421;SDS011;10370;53.102;18.034;2024-03-23T01:24:27;19.17;;;5.57;;
20421;SDS011;10370;53.102;18.034;2024-03-23T01:29:48;21.95;;;5.65;;
20421;SDS011;10370;53.102;18.034;2024-03-23T01:35:10;20.55;;;6.55;;
20421;SDS011;10370;53.102;18.034;2024-03-23T01:40:31;28.02;;;8.82;;
20421;SDS011;10370;53.102;18.034;2024-03-23T01:45:53;23.70;;;8.10;;
20421;SDS011;10370;53.102;18.034;2024-03-23T01:51:14;25.17;;;7.93;;
20421;SDS011;10370;53.102;18.034;2024-03-23T01:56:36;28.45;;;7.38;;
20421;SDS011;10370;53.102;18.034;2024-03-23T02:01:58;19.65;;;6.32;;
20421;SDS011;10370;53.102;18.034;2024-03-23T02:07:08;18.65;;;5.38;;
20421;SDS011;10370;53.102;18.034;2024-03-23T02:12:30;19.95;;;5.57;;
20421;SDS011;10370;53.102;18.034;2024-03-23T02:17:52;17.50;;;5.32;;
20421;SDS011;10370;53.102;18.034;2024-03-23T02:23:14;16.33;;;5.25;;
20421;SDS011;10370;53.102;18.034;2024-03-23T02:28:38;21.52;;;5.38;;
20421;SDS011;10370;53.102;18.034;2024-03-23T02:34:00;20.95;;;5.15;;
20421;SDS011;10370;53.102;18.034;2024-03-23T02:39:22;25.33;;;7.18;;
20421;SDS011;10370;53.102;18.034;2024-03-23T02:44:44;17.75;;;5.45;;
20421;SDS011;10370;53.102;18.034;2024-03-23T02:50:06;20.08;;;5.40;;
20421;SDS011;10370;53.102;18.034;2024-03-23T02:55:30;27.23;;;5.93;;
20421;SDS011;10370;53.102;18.034;2024-03-23T03:00:52;31.63;;;8.90;;
20421;SDS011;10370;53.102;18.034;2024-03-23T03:06:22;25.33;;;6.18;;
20421;SDS011;10370;53.102;18.034;2024-03-23T03:11:46;31.08;;;10.45;;
20421;SDS011;10370;53.102;18.034;2024-03-23T03:17:08;24.95;;;8.30;;
20421;SDS011;10370;53.102;18.034;2024-03-23T03:22:29;25.40;;;8.70;;
20421;SDS011;10370;53.102;18.034;2024-03-23T03:27:51;22.92;;;8.55;;
20421;SDS011;10370;53.102;18.034;2024-03-23T03:33:12;24.48;;;7.53;;
20421;SDS011;10370;53.102;18.034;2024-03-23T03:38:34;26.75;;;7.05;;
20421;SDS011;10370;53.102;18.034;2024-03-23T03:43:56;28.77;;;8.23;;
20421;SDS011;10370;53.102;18.034;2024-03-23T03:49:22;17.08;;;6.05;;
20421;SDS011;10370;53.102;18.034;2024-03-23T03:54:43;24.80;;;7.43;;
20421;SDS011;10370;53.102;18.034;2024-03-23T04:00:06;18.15;;;5.75;;
20421;SDS011;10370;53.102;18.034;2024-03-23T04:05:31;22.38;;;5.15;;
20421;SDS011;10370;53.102;18.034;2024-03-23T04:10:53;21.10;;;5.88;;
20421;SDS011;10370;53.102;18.034;2024-03-23T04:16:25;16.50;;;5.45;;
20421;SDS011;10370;53.102;18.034;2024-03-23T04:21:55;18.95;;;5.20;;
20421;SDS011;10370;53.102;18.034;2024-03-23T04:27:17;17.83;;;5.30;;
20421;SDS011;10370;53.102;18.034;2024-03-23T04:32:39;14.93;;;4.60;;
20421;SDS011;10370;53.102;18.034;2024-03-23T04:38:01;19.63;;;5.10;;
20421;SDS011;10370;53.102;18.034;2024-03-23T04:43:22;15.90;;;4.80;;
20421;SDS011;10370;53.102;18.034;2024-03-23T04:48:44;15.02;;;5.00;;
20421;SDS011;10370;53.102;18.034;2024-03-23T04:54:05;17.95;;;6.57;;
20421;SDS011;10370;53.102;18.034;2024-03-23T04:59:26;15.75;;;4.85;;
20421;SDS011;10370;53.102;18.034;2024-03-23T05:04:48;16.35;;;5.10;;
20421;SDS011;10370;53.102;18.034;2024-03-23T05:10:09;19.60;;;4.90;;
20421;SDS011;10370;53.102;18.034;2024-03-23T05:15:31;17.23;;;5.05;;
20421;SDS011;10370;53.102;18.034;2024-03-23T05:20:56;17.65;;;4.88;;
20421;SDS011;10370;53.102;18.034;2024-03-23T05:26:23;17.58;;;4.90;;
20421;SDS011;10370;53.102;18.034;2024-03-23T05:31:49;20.45;;;5.22;;
20421;SDS011;10370;53.102;18.034;2024-03-23T05:37:13;16.35;;;4.80;;
20421;SDS011;10370;53.102;18.034;2024-03-23T05:42:34;23.20;;;5.45;;
20421;SDS011;10370;53.102;18.034;2024-03-23T05:47:56;24.67;;;7.05;;
20421;SDS011;10370;53.102;18.034;2024-03-23T05:53:18;62.85;;;19.83;;
20421;SDS011;10370;53.102;18.034;2024-03-23T05:58:51;25.83;;;8.82;;
20421;SDS011;10370;53.102;18.034;2024-03-23T06:04:15;22.48;;;10.43;;
20421;SDS011;10370;53.102;18.034;2024-03-23T06:09:36;44.55;;;16.90;;
20421;SDS011;10370;53.102;18.034;2024-03-23T06:14:58;26.75;;;8.02;;
20421;SDS011;10370;53.102;18.034;2024-03-23T06:20:19;26.77;;;6.15;;
20421;SDS011;10370;53.102;18.034;2024-03-23T06:25:41;26.83;;;6.22;;
20421;SDS011;10370;53.102;18.034;2024-03-23T06:31:03;27.98;;;5.97;;
20421;SDS011;10370;53.102;18.034;2024-03-23T06:36:29;25.38;;;5.97;;
20421;SDS011;10370;53.102;18.034;2024-03-23T06:41:52;28.08;;;6.38;;
20421;SDS011;10370;53.102;18.034;2024-03-23T06:47:14;20.70;;;6.25;;
20421;SDS011;10370;53.102;18.034;2024-03-23T06:52:36;32.38;;;7.85;;
20421;SDS011;10370;53.102;18.034;2024-03-23T06:57:57;26.15;;;8.50;;
20421;SDS011;10370;53.102;18.034;2024-03-23T07:03:20;26.88;;;6.38;;
20421;SDS011;10370;53.102;18.034;2024-03-23T07:08:42;28.00;;;7.07;;
20421;SDS011;10370;53.102;18.034;2024-03-23T07:14:04;26.35;;;6.60;;
20421;SDS011;10370;53.102;18.034;2024-03-23T07:19:28;23.30;;;6.75;;
20421;SDS011;10370;53.102;18.034;2024-03-23T07:24:50;28.20;;;7.35;;
20421;SDS011;10370;53.102;18.034;2024-03-23T07:30:12;26.52;;;7.10;;
20421;SDS011;10370;53.102;18.034;2024-03-23T07:35:34;23.08;;;6.95;;
20421;SDS011;10370;53.102;18.034;2024-03-23T07:41:25;29.75;;;7.88;;
20421;SDS011;10370;53.102;18.034;2024-03-23T07:46:56;26.10;;;6.70;;
20421;SDS011;10370;53.102;18.034;2024-03-23T07:52:18;34.67;;;8.73;;
20421;SDS011;10370;53.102;18.034;2024-03-23T07:57:42;18.52;;;5.53;;
20421;SDS011;10370;53.102;18.034;2024-03-23T08:03:04;22.70;;;7.38;;
20421;SDS011;10370;53.102;18.034;2024-03-23T08:08:26;21.10;;;4.88;;
20421;SDS011;10370;53.102;18.034;2024-03-23T08:13:59;17.20;;;4.30;;
20421;SDS011;10370;53.102;18.034;2024-03-23T08:19:22;14.23;;;5.30;;
20421;SDS011;10370;53.102;18.034;2024-03-23T08:24:51;24.75;;;8.90;;
20421;SDS011;10370;53.102;18.034;2024-03-23T08:30:13;33.42;;;10.20;;
20421;SDS011;10370;53.102;18.034;2024-03-23T08:35:35;32.25;;;8.85;;
20421;SDS011;10370;53.102;18.034;2024-03-23T08:40:58;40.00;;;14.57;;
20421;SDS011;10370;53.102;18.034;2024-03-23T08:52:16;30.92;;;8.90;;
20421;SDS011;10370;53.102;18.034;2024-03-23T08:57:38;28.65;;;9.60;;
20421;SDS011;10370;53.102;18.034;2024-03-23T09:02:59;42.53;;;15.18;;
20421;SDS011;10370;53.102;18.034;2024-03-23T09:08:26;17.65;;;5.28;;
20421;SDS011;10370;53.102;18.034;2024-03-23T09:13:47;16.70;;;4.50;;
20421;SDS011;10370;53.102;18.034;2024-03-23T09:19:10;16.45;;;4.95;;
20421;SDS011;10370;53.102;18.034;2024-03-23T09:24:31;16.63;;;4.20;;
20421;SDS011;10370;53.102;18.034;2024-03-23T09:29:53;24.77;;;5.70;;
20421;SDS011;10370;53.102;18.034;2024-03-23T09:35:15;14.10;;;4.38;;
20421;SDS011;10370;53.102;18.034;2024-03-23T09:40:40;17.08;;;6.72;;
20421;SDS011;10370;53.102;18.034;2024-03-23T09:46:03;12.75;;;4.55;;
20421;SDS011;10370;53.102;18.034;2024-03-23T09:51:25;13.30;;;5.60;;
20421;SDS011;10370;53.102;18.034;2024-03-23T09:56:46;11.25;;;3.80;;
20421;SDS011;10370;53.102;18.034;2024-03-23T10:07:36;16.75;;;5.63;;
20421;SDS011;10370;53.102;18.034;2024-03-23T10:12:58;9.45;;;3.78;;
20421;SDS011;10370;53.102;18.034;2024-03-23T10:18:20;12.27;;;4.03;;
20421;SDS011;10370;53.102;18.034;2024-03-23T10:23:44;9.02;;;3.60;;
20421;SDS011;10370;53.102;18.034;2024-03-23T10:29:07;13.88;;;4.03;;
20421;SDS011;10370;53.102;18.034;2024-03-23T10:34:31;12.02;;;4.10;;
20421;SDS011;10370;53.102;18.034;2024-03-23T10:39:53;12.82;;;5.13;;
20421;SDS011;10370;53.102;18.034;2024-03-23T10:45:14;9.40;;;4.35;;
20421;SDS011;10370;53.102;18.034;2024-03-23T10:50:36;9.32;;;3.38;;
20421;SDS011;10370;53.102;18.034;2024-03-23T10:55:58;10.70;;;3.35;;
20421;SDS011;10370;53.102;18.034;2024-03-23T11:01:20;7.53;;;2.92;;
20421;SDS011;10370;53.102;18.034;2024-03-23T11:06:42;7.40;;;2.40;;
20421;SDS011;10370;53.102;18.034;2024-03-23T11:17:56;9.18;;;2.70;;
20421;SDS011;10370;53.102;18.034;2024-03-23T11:23:29;6.60;;;3.15;;
20421;SDS011;10370;53.102;18.034;2024-03-23T11:28:50;7.88;;;3.45;;
20421;SDS011;10370;53.102;18.034;2024-03-23T11:34:30;9.77;;;4.38;;
20421;SDS011;10370;53.102;18.034;2024-03-23T11:39:57;8.57;;;3.88;;
20421;SDS011;10370;53.102;18.034;2024-03-23T11:45:18;12.27;;;3.40;;
20421;SDS011;10370;53.102;18.034;2024-03-23T11:50:43;11.43;;;3.60;;
20421;SDS011;10370;53.102;18.034;2024-03-23T11:56:12;12.63;;;3.80;;
20421;SDS011;10370;53.102;18.034;2024-03-23T12:01:33;15.68;;;5.25;;
20421;SDS011;10370;53.102;18.034;2024-03-23T12:07:11;13.10;;;5.22;;
20421;SDS011;10370;53.102;18.034;2024-03-23T12:12:33;13.80;;;5.15;;
20421;SDS011;10370;53.102;18.034;2024-03-23T12:18:08;14.38;;;5.72;;
20421;SDS011;10370;53.102;18.034;2024-03-23T12:23:33;15.95;;;5.40;;
20421;SDS011;10370;53.102;18.034;2024-03-23T12:28:56;21.55;;;6.20;;
20421;SDS011;10370;53.102;18.034;2024-03-23T12:34:17;19.45;;;5.50;;
20421;SDS011;10370;53.102;18.034;2024-03-23T12:39:39;12.35;;;4.85;;
20421;SDS011;10370;53.102;18.034;2024-03-23T12:45:00;12.02;;;4.57;;
20421;SDS011;10370;53.102;18.034;2024-03-23T12:50:22;13.90;;;6.82;;
20421;SDS011;10370;53.102;18.034;2024-03-23T12:55:44;12.35;;;6.00;;
20421;SDS011;10370;53.102;18.034;2024-03-23T13:01:06;14.32;;;6.32;;
20421;SDS011;10370;53.102;18.034;2024-03-23T13:06:28;15.80;;;6.13;;
20421;SDS011;10370;53.102;18.034;2024-03-23T13:11:54;15.48;;;6.22;;
20421;SDS011;10370;53.102;18.034;2024-03-23T13:17:17;10.00;;;5.30;;
20421;SDS011;10370;53.102;18.034;2024-03-23T13:22:39;10.55;;;5.28;;
20421;SDS011;10370;53.102;18.034;2024-03-23T13:28:00;10.00;;;5.60;;
20421;SDS011;10370;53.102;18.034;2024-03-23T13:33:26;7.93;;;4.40;;
20421;SDS011;10370;53.102;18.034;2024-03-23T13:38:53;12.35;;;4.10;;
20421;SDS011;10370;53.102;18.034;2024-03-23T13:44:14;9.82;;;4.35;;
20421;SDS011;10370;53.102;18.034;2024-03-23T13:49:36;11.25;;;5.20;;
20421;SDS011;10370;53.102;18.034;2024-03-23T13:54:58;13.55;;;5.53;;
20421;SDS011;10370;53.102;18.034;2024-03-23T14:00:20;13.40;;;4.68;;
20421;SDS011;10370;53.102;18.034;2024-03-23T14:05:42;9.57;;;3.83;;
20421;SDS011;10370;53.102;18.034;2024-03-23T14:11:04;10.43;;;4.30;;
20421;SDS011;10370;53.102;18.034;2024-03-23T14:16:29;8.18;;;4.25;;
20421;SDS011;10370;53.102;18.034;2024-03-23T14:21:52;8.05;;;2.83;;
20421;SDS011;10370;53.102;18.034;2024-03-23T14:27:16;5.37;;;2.57;;
20421;SDS011;10370;53.102;18.034;2024-03-23T14:32:42;4.90;;;2.67;;
20421;SDS011;10370;53.102;18.034;2024-03-23T14:38:03;6.77;;;3.23;;
20421;SDS011;10370;53.102;18.034;2024-03-23T14:43:25;6.03;;;2.80;;
20421;SDS011;10370;53.102;18.034;2024-03-23T14:48:50;5.03;;;2.70;;
20421;SDS011;10370;53.102;18.034;2024-03-23T14:54:12;5.97;;;2.70;;
20421;SDS011;10370;53.102;18.034;2024-03-23T14:59:34;7.13;;;3.13;;
20421;SDS011;10370;53.102;18.034;2024-03-23T15:04:56;6.00;;;3.30;;
20421;SDS011;10370;53.102;18.034;2024-03-23T15:10:19;6.97;;;2.47;;
20421;SDS011;10370;53.102;18.034;2024-03-23T15:15:40;10.37;;;3.07;;
20421;SDS011;10370;53.102;18.034;2024-03-23T15:21:05;10.93;;;3.60;;
20421;SDS011;10370;53.102;18.034;2024-03-23T15:26:28;12.93;;;4.83;;
20421;SDS011;10370;53.102;18.034;2024-03-23T15:31:50;5.20;;;2.70;;
20421;SDS011;10370;53.102;18.034;2024-03-23T15:37:13;5.53;;;3.20;;
20421;SDS011;10370;53.102;18.034;2024-03-23T15:42:35;7.50;;;3.60;;
20421;SDS011;10370;53.102;18.034;2024-03-23T15:48:03;9.30;;;2.77;;
20421;SDS011;10370;53.102;18.034;2024-03-23T15:53:26;7.00;;;3.27;;
20421;SDS011;10370;53.102;18.034;2024-03-23T15:59:01;7.70;;;3.00;;
20421;SDS011;10370;53.102;18.034;2024-03-23T16:04:30;7.87;;;2.97;;
20421;SDS011;10370;53.102;18.034;2024-03-23T16:09:52;9.37;;;3.27;;
20421;SDS011;10370;53.102;18.034;2024-03-23T16:15:13;9.53;;;3.83;;
20421;SDS011;10370;53.102;18.034;2024-03-23T16:20:35;11.93;;;4.43;;
20421;SDS011;10370;53.102;18.034;2024-03-23T16:25:57;12.73;;;4.57;;
20421;SDS011;10370;53.102;18.034;2024-03-23T16:31:20;9.53;;;3.83;;
20421;SDS011;10370;53.102;18.034;2024-03-23T16:36:42;8.10;;;3.10;;
20421;SDS011;10370;53.102;18.034;2024-03-23T16:42:03;11.67;;;4.30;;
20421;SDS011;10370;53.102;18.034;2024-03-23T16:47:26;9.52;;;4.70;;
20421;SDS011;10370;53.102;18.034;2024-03-23T16:52:48;9.00;;;4.23;;
20421;SDS011;10370;53.102;18.034;2024-03-23T16:58:10;10.00;;;3.80;;
20421;SDS011;10370;53.102;18.034;2024-03-23T17:03:31;10.73;;;3.77;;
20421;SDS011;10370;53.102;18.034;2024-03-23T17:08:57;10.77;;;3.90;;
20421;SDS011;10370;53.102;18.034;2024-03-23T17:14:19;12.87;;;4.03;;
20421;SDS011;10370;53.102;18.034;2024-03-23T17:19:41;13.97;;;3.80;;
20421;SDS011;10370;53.102;18.034;2024-03-23T17:25:03;13.13;;;5.00;;
20421;SDS011;10370;53.102;18.034;2024-03-23T17:30:25;13.43;;;3.80;;
20421;SDS011;10370;53.102;18.034;2024-03-23T17:35:52;13.47;;;5.13;;
20421;SDS011;10370;53.102;18.034;2024-03-23T17:41:14;14.13;;;5.80;;
20421;SDS011;10370;53.102;18.034;2024-03-23T17:46:37;6.93;;;3.40;;
20421;SDS011;10370;53.102;18.034;2024-03-23T17:51:59;14.07;;;5.13;;
20421;SDS011;10370;53.102;18.034;2024-03-23T17:57:37;12.20;;;4.70;;
20421;SDS011;10370;53.102;18.034;2024-03-23T18:02:59;8.30;;;4.33;;
20421;SDS011;10370;53.102;18.034;2024-03-23T18:08:21;14.10;;;4.80;;
20421;SDS011;10370;53.102;18.034;2024-03-23T18:13:42;44.60;;;22.57;;
20421;SDS011;10370;53.102;18.034;2024-03-23T18:19:04;36.03;;;11.00;;
20421;SDS011;10370;53.102;18.034;2024-03-23T18:24:27;20.27;;;8.43;;
20421;SDS011;10370;53.102;18.034;2024-03-23T18:29:54;17.13;;;6.10;;
20421;SDS011;10370;53.102;18.034;2024-03-23T18:35:25;14.17;;;6.43;;
20421;SDS011;10370;53.102;18.034;2024-03-23T18:40:50;12.03;;;5.73;;
20421;SDS011;10370;53.102;18.034;2024-03-23T18:46:12;17.43;;;6.37;;
20421;SDS011;10370;53.102;18.034;2024-03-23T18:51:34;15.43;;;5.83;;
20421;SDS011;10370;53.102;18.034;2024-03-23T18:56:57;14.37;;;6.30;;
20421;SDS011;10370;53.102;18.034;2024-03-23T19:02:20;14.27;;;6.37;;
20421;SDS011;10370;53.102;18.034;2024-03-23T19:07:41;20.50;;;6.37;;
20421;SDS011;10370;53.102;18.034;2024-03-23T19:13:03;15.03;;;7.07;;
20421;SDS011;10370;53.102;18.034;2024-03-23T19:18:25;15.57;;;7.07;;
20421;SDS011;10370;53.102;18.034;2024-03-23T19:23:51;15.50;;;7.23;;
20421;SDS011;10370;53.102;18.034;2024-03-23T19:29:27;15.03;;;7.00;;
20421;SDS011;10370;53.102;18.034;2024-03-23T19:34:49;16.37;;;6.60;;
20421;SDS011;10370;53.102;18.034;2024-03-23T19:40:10;19.97;;;7.30;;
20421;SDS011;10370;53.102;18.034;2024-03-23T19:45:33;15.83;;;6.47;;
20421;SDS011;10370;53.102;18.034;2024-03-23T19:50:55;19.30;;;7.53;;
20421;SDS011;10370;53.102;18.034;2024-03-23T19:56:22;12.80;;;5.03;;
20421;SDS011;10370;53.102;18.034;2024-03-23T20:01:44;13.30;;;5.87;;
20421;SDS011;10370;53.102;18.034;2024-03-23T20:07:08;14.80;;;6.47;;
20421;SDS011;10370;53.102;18.034;2024-03-23T20:12:32;12.10;;;5.60;;
20421;SDS011;10370;53.102;18.034;2024-03-23T20:17:54;14.63;;;5.50;;
20421;SDS011;10370;53.102;18.034;2024-03-23T20:23:17;15.07;;;6.00;;
20421;SDS011;10370;53.102;18.034;2024-03-23T20:28:38;9.60;;;5.30;;
20421;SDS011;10370;53.102;18.034;2024-03-23T20:34:00;12.20;;;5.70;;
20421;SDS011;10370;53.102;18.034;2024-03-23T20:39:23;10.47;;;5.20;;
20421;SDS011;10370;53.102;18.034;2024-03-23T20:44:45;13.60;;;5.97;;
20421;SDS011;10370;53.102;18.034;2024-03-23T20:50:08;12.40;;;6.00;;
20421;SDS011;10370;53.102;18.034;2024-03-23T20:55:33;11.03;;;5.53;;
20421;SDS011;10370;53.102;18.034;2024-03-23T21:01:02;12.53;;;5.67;;
20421;SDS011;10370;53.102;18.034;2024-03-23T21:06:24;10.70;;;5.67;;
20421;SDS011;10370;53.102;18.034;2024-03-23T21:11:46;15.43;;;6.47;;
20421;SDS011;10370;53.102;18.034;2024-03-23T21:17:11;14.47;;;7.23;;
20421;SDS011;10370;53.102;18.034;2024-03-23T21:22:43;15.93;;;6.80;;
20421;SDS011;10370;53.102;18.034;2024-03-23T21:28:05;18.37;;;7.87;;
20421;SDS011;10370;53.102;18.034;2024-03-23T21:33:28;15.13;;;7.37;;
20421;SDS011;10370;53.102;18.034;2024-03-23T21:38:50;21.07;;;9.23;;
20421;SDS011;10370;53.102;18.034;2024-03-23T21:44:11;20.03;;;8.87;;
20421;SDS011;10370;53.102;18.034;2024-03-23T21:49:33;19.03;;;8.67;;
20421;SDS011;10370;53.102;18.034;2024-03-23T21:54:54;26.57;;;13.60;;
20421;SDS011;10370;53.102;18.034;2024-03-23T22:00:16;32.20;;;12.97;;
20421;SDS011;10370;53.102;18.034;2024-03-23T22:06:02;39.10;;;15.00;;
20421;SDS011;10370;53.102;18.034;2024-03-23T22:11:33;36.20;;;14.03;;
20421;SDS011;10370;53.102;18.034;2024-03-23T22:16:55;28.43;;;11.23;;
20421;SDS011;10370;53.102;18.034;2024-03-23T22:22:17;25.03;;;11.37;;
20421;SDS011;10370;53.102;18.034;2024-03-23T22:27:38;29.17;;;11.00;;
20421;SDS011;10370;53.102;18.034;2024-03-23T22:32:59;33.37;;;12.90;;
20421;SDS011;10370;53.102;18.034;2024-03-23T22:38:21;35.53;;;16.13;;
20421;SDS011;10370;53.102;18.034;2024-03-23T22:43:47;39.60;;;16.27;;
20421;SDS011;10370;53.102;18.034;2024-03-23T22:49:08;45.73;;;18.17;;
20421;SDS011;10370;53.102;18.034;2024-03-23T22:54:30;42.00;;;15.07;;
20421;SDS011;10370;53.102;18.034;2024-03-23T23:05:59;26.07;;;9.13;;
20421;SDS011;10370;53.102;18.034;2024-03-23T23:11:22;19.80;;;8.47;;
20421;SDS011;10370;53.102;18.034;2024-03-23T23:16:43;19.20;;;8.50;;
20421;SDS011;10370;53.102;18.034;2024-03-23T23:22:05;21.80;;;7.63;;
20421;SDS011;10370;53.102;18.034;2024-03-23T23:27:26;15.07;;;6.67;;
20421;SDS011;10370;53.102;18.034;2024-03-23T23:32:48;17.47;;;7.07;;
20421;SDS011;10370;53.102;18.034;2024-03-23T23:38:09;16.70;;;7.10;;
20421;SDS011;10370;53.102;18.034;2024-03-23T23:43:34;17.97;;;8.07;;
20421;SDS011;10370;53.102;18.034;2024-03-23T23:48:56;20.73;;;8.70;;
20421;SDS011;10370;53.102;18.034;2024-03-23T23:54:17;21.03;;;7.97;;
20421;SDS011;10370;53.102;18.034;2024-03-23T23:59:39;18.90;;;7.27;;
